createdAt,value
2019-01-26T00:00:05.052Z,1.09
2019-01-26T00:02:36.846Z,1.12
2019-01-26T00:05:08.592Z,1.11
2019-01-26T00:07:39.210Z,1.11
2019-01-26T00:10:09.948Z,1.12
2019-01-26T00:12:40.302Z,1.06
2019-01-26T00:15:10.720Z,1.08
2019-01-26T00:17:41.577Z,1.06
2019-01-26T00:20:11.837Z,1.05
2019-01-26T00:22:42.119Z,1.03
2019-01-26T00:25:12.375Z,1.03
2019-01-26T00:27:42.549Z,1.02
2019-01-26T00:30:14.392Z,1.02
2019-01-26T00:32:44.915Z,1.07
2019-01-26T00:35:16.376Z,1.08
2019-01-26T00:37:47.922Z,1.13
2019-01-26T00:40:18.130Z,1.30
2019-01-26T00:42:49.424Z,1.40
2019-01-26T00:45:19.789Z,1.41
2019-01-26T00:47:50.308Z,1.39
2019-01-26T00:50:20.873Z,1.44
2019-01-26T00:52:51.125Z,1.41
2019-01-26T00:55:21.862Z,1.38
2019-01-26T00:57:52.084Z,1.32
2019-01-26T01:00:22.898Z,1.31
2019-01-26T01:02:53.150Z,1.29
2019-01-26T01:05:23.520Z,1.30
2019-01-26T01:07:53.883Z,1.28
2019-01-26T01:10:24.565Z,1.17
2019-01-26T01:12:54.935Z,1.18
2019-01-26T01:15:25.175Z,1.15
2019-01-26T01:17:55.785Z,1.13
2019-01-26T01:20:26.425Z,1.07
2019-01-26T01:22:56.798Z,0.97
2019-01-26T01:25:26.977Z,0.99
2019-01-26T01:27:57.271Z,0.96
2019-01-26T01:30:27.551Z,0.94
2019-01-26T01:32:57.814Z,0.96
2019-01-26T01:35:28.355Z,1.00
2019-01-26T01:37:58.567Z,1.02
2019-01-26T01:40:28.744Z,1.04
2019-01-26T01:42:59.328Z,1.03
2019-01-26T01:45:31.251Z,1.03
2019-01-26T01:48:01.823Z,1.03
2019-01-26T01:50:32.996Z,0.93
2019-01-26T01:53:03.304Z,0.89
2019-01-26T01:55:34.036Z,0.90
2019-01-26T01:58:04.446Z,0.86
2019-01-26T02:00:34.815Z,0.82
2019-01-26T02:03:05.586Z,0.82
2019-01-26T02:05:35.817Z,0.85
2019-01-26T02:08:06.069Z,0.85
2019-01-26T02:10:36.333Z,0.89
2019-01-26T02:13:07.121Z,0.86
2019-01-26T02:15:37.403Z,0.90
2019-01-26T02:18:07.822Z,0.90
2019-01-26T02:20:38.103Z,0.91
2019-01-26T02:23:08.729Z,0.88
2019-01-26T02:25:38.987Z,0.93
2019-01-26T02:28:09.259Z,0.91
2019-01-26T02:30:39.783Z,0.94
2019-01-26T02:33:10.334Z,0.96
2019-01-26T02:35:40.862Z,0.97
2019-01-26T02:38:11.079Z,0.98
2019-01-26T02:40:41.330Z,0.97
2019-01-26T02:43:11.619Z,0.99
2019-01-26T02:45:42.230Z,1.01
2019-01-26T02:48:12.474Z,1.02
2019-01-26T02:50:42.752Z,1.01
2019-01-26T02:53:13.055Z,1.01
2019-01-26T02:55:43.226Z,1.01
2019-01-26T02:58:14.097Z,0.97
2019-01-26T03:00:44.691Z,0.97
2019-01-26T03:03:14.960Z,0.97
2019-01-26T03:05:45.158Z,0.96
2019-01-26T03:08:15.402Z,1.00
2019-01-26T03:10:45.932Z,0.97
2019-01-26T03:13:16.557Z,0.94
2019-01-26T03:15:47.193Z,0.96
2019-01-26T03:19:36.482Z,0.95
2019-01-26T03:22:06.758Z,0.95
2019-01-26T03:24:36.999Z,0.98
2019-01-26T03:27:07.545Z,0.98
2019-01-26T03:29:37.842Z,0.99
2019-01-26T03:32:08.476Z,0.95
2019-01-26T03:34:38.739Z,0.96
2019-01-26T03:37:08.960Z,1.00
2019-01-26T03:39:39.472Z,1.00
2019-01-26T03:42:09.907Z,1.04
2019-01-26T03:44:40.536Z,1.09
2019-01-26T03:47:13.780Z,1.06
2019-01-26T03:49:43.339Z,1.04
2019-01-26T03:52:13.590Z,1.08
2019-01-26T03:54:44.974Z,1.08
2019-01-26T03:57:15.493Z,1.02
2019-01-26T03:59:46.061Z,1.07
2019-01-26T04:02:16.334Z,1.07
2019-01-26T04:04:46.680Z,1.04
2019-01-26T04:07:16.881Z,1.05
2019-01-26T04:09:47.164Z,1.06
2019-01-26T04:12:17.452Z,1.07
2019-01-26T04:14:47.729Z,1.05
2019-01-26T04:17:21.859Z,1.02
2019-01-26T04:19:49.987Z,1.01
2019-01-26T04:22:20.673Z,0.99
2019-01-26T04:24:50.963Z,0.97
2019-01-26T04:27:21.271Z,0.95
2019-01-26T04:29:51.489Z,0.89
2019-01-26T04:32:21.866Z,0.82
2019-01-26T04:34:52.450Z,0.79
2019-01-26T04:37:22.804Z,0.80
2019-01-26T04:39:52.998Z,0.79
2019-01-26T04:42:23.195Z,0.75
2019-01-26T04:44:53.430Z,0.72
2019-01-26T04:47:30.858Z,0.76
2019-01-26T04:49:56.148Z,0.77
2019-01-26T04:52:26.472Z,0.78
2019-01-26T04:54:57.768Z,0.80
2019-01-26T04:57:27.959Z,0.79
2019-01-26T04:59:58.195Z,0.77
2019-01-26T05:02:28.470Z,0.75
2019-01-26T05:04:58.919Z,0.75
2019-01-26T05:07:29.118Z,0.78
2019-01-26T05:09:59.654Z,0.84
2019-01-26T05:12:30.285Z,0.84
2019-01-26T05:15:00.820Z,0.89
2019-01-26T05:17:39.024Z,0.84
2019-01-26T05:20:04.263Z,0.84
2019-01-26T05:22:34.554Z,0.88
2019-01-26T05:25:05.729Z,0.92
2019-01-26T05:27:36.031Z,0.95
2019-01-26T05:30:09.218Z,0.92
2019-01-26T05:32:39.444Z,0.93
2019-01-26T05:35:09.810Z,0.91
2019-01-26T05:37:40.016Z,0.94
2019-01-26T05:40:12.966Z,0.96
2019-01-26T05:42:43.168Z,0.98
2019-01-26T05:45:15.923Z,0.99
2019-01-26T05:47:49.068Z,0.95
2019-01-26T05:50:20.671Z,0.94
2019-01-26T05:52:51.714Z,0.89
2019-01-26T05:55:21.985Z,0.84
2019-01-26T05:57:52.206Z,0.85
2019-01-26T06:00:36.914Z,0.86
2019-01-26T06:03:07.852Z,0.89
2019-01-26T06:05:38.381Z,0.92
2019-01-26T06:08:08.654Z,0.90
2019-01-26T06:10:38.943Z,0.92
2019-01-26T06:13:09.202Z,0.95
2019-01-26T06:15:39.386Z,0.97
2019-01-26T06:18:09.650Z,1.00
2019-01-26T06:20:41.286Z,1.00
2019-01-26T06:23:12.163Z,1.00
2019-01-26T06:25:42.426Z,1.07
2019-01-26T06:28:12.623Z,1.09
2019-01-26T06:30:42.864Z,1.04
2019-01-26T06:33:13.451Z,1.13
2019-01-26T06:35:44.067Z,1.19
2019-01-26T06:38:14.291Z,1.23
2019-01-26T06:40:45.425Z,1.26
2019-01-26T06:43:15.665Z,1.22
2019-01-26T06:45:45.951Z,1.19
2019-01-26T06:48:16.565Z,1.22
2019-01-26T06:50:46.777Z,1.21
2019-01-26T06:53:17.067Z,1.21
2019-01-26T06:55:48.210Z,1.15
2019-01-26T06:58:18.535Z,1.22
2019-01-26T07:00:48.814Z,1.18
2019-01-26T07:03:19.068Z,1.17
2019-01-26T07:06:03.344Z,1.19
2019-01-26T07:08:33.846Z,1.20
2019-01-26T07:11:04.135Z,1.25
2019-01-26T07:13:34.412Z,1.30
2019-01-26T07:16:05.364Z,1.35
2019-01-26T07:18:35.996Z,1.38
2019-01-26T07:21:06.274Z,1.42
2019-01-26T07:23:36.544Z,1.51
2019-01-26T07:26:07.270Z,1.55
2019-01-26T07:28:37.514Z,1.50
2019-01-26T07:31:07.762Z,1.51
2019-01-26T07:33:38.036Z,1.52
2019-01-26T07:36:08.878Z,1.56
2019-01-26T07:38:39.410Z,1.58
2019-01-26T07:41:09.666Z,1.59
2019-01-26T07:43:40.316Z,1.59
2019-01-26T07:46:10.921Z,1.61
2019-01-26T07:48:44.565Z,1.67
2019-01-26T07:51:16.390Z,1.58
2019-01-26T07:53:47.966Z,1.61
2019-01-26T07:56:18.980Z,1.65
2019-01-26T07:58:49.920Z,1.69
2019-01-26T08:01:20.324Z,1.65
2019-01-26T08:03:51.051Z,1.68
2019-01-26T08:06:21.802Z,1.68
2019-01-26T08:08:52.537Z,1.65
2019-01-26T08:11:22.868Z,1.60
2019-01-26T08:13:53.277Z,1.66
2019-01-26T08:16:23.636Z,1.71
2019-01-26T08:18:53.967Z,1.74
2019-01-26T08:21:24.196Z,1.79
2019-01-26T08:23:54.592Z,1.81
2019-01-26T08:26:25.214Z,1.84
2019-01-26T08:28:55.591Z,1.88
2019-01-26T08:31:25.876Z,1.90
2019-01-26T08:33:56.160Z,1.89
2019-01-26T08:36:27.533Z,1.91
2019-01-26T08:38:58.265Z,1.93
2019-01-26T08:41:28.575Z,1.90
2019-01-26T08:43:59.248Z,1.97
2019-01-26T08:46:29.844Z,2.04
2019-01-26T08:49:00.280Z,2.07
2019-01-26T08:51:30.620Z,2.09
2019-01-26T08:54:00.976Z,2.16
2019-01-26T08:56:31.613Z,2.13
2019-01-26T08:59:02.715Z,2.15
2019-01-26T09:01:33.081Z,2.14
2019-01-26T09:04:24.969Z,2.17
2019-01-26T09:07:04.284Z,2.24
2019-01-26T09:09:34.816Z,2.20
2019-01-26T09:12:05.460Z,2.22
2019-01-26T09:14:36.328Z,2.27
2019-01-26T09:17:08.105Z,2.31
2019-01-26T09:19:38.850Z,2.37
2019-01-26T09:22:10.931Z,2.42
2019-01-26T09:24:41.532Z,2.48
2019-01-26T09:27:12.760Z,2.51
2019-01-26T09:29:43.254Z,2.60
2019-01-26T09:32:13.627Z,2.61
2019-01-26T09:34:44.413Z,2.60
2019-01-26T09:37:16.163Z,2.58
2019-01-26T09:39:46.684Z,2.61
2019-01-26T09:42:17.329Z,2.69
2019-01-26T09:44:50.749Z,2.72
2019-01-26T09:47:21.895Z,2.86
2019-01-26T09:49:53.388Z,2.96
2019-01-26T09:52:24.041Z,3.05
2019-01-26T09:54:54.911Z,3.02
2019-01-26T09:57:25.878Z,3.18
2019-01-26T09:59:56.851Z,3.34
2019-01-26T10:02:27.945Z,3.51
2019-01-26T10:04:59.023Z,3.68
2019-01-26T10:07:31.231Z,3.63
2019-01-26T10:10:02.478Z,3.59
2019-01-26T10:12:33.080Z,3.59
2019-01-26T10:15:04.958Z,3.53
2019-01-26T10:17:36.442Z,3.61
2019-01-26T10:20:10.426Z,3.75
2019-01-26T10:22:41.181Z,3.79
2019-01-26T10:25:12.447Z,3.78
2019-01-26T10:27:43.097Z,3.86
2019-01-26T10:30:22.452Z,3.83
2019-01-26T10:32:53.110Z,3.77
2019-01-26T10:35:26.743Z,3.75
2019-01-26T10:37:57.812Z,3.67
2019-01-26T10:40:47.523Z,3.51
2019-01-26T10:43:18.869Z,3.43
2019-01-26T10:45:49.428Z,3.43
2019-01-26T10:48:20.279Z,3.44
2019-01-26T10:50:50.627Z,3.40
2019-01-26T10:53:21.158Z,3.43
2019-01-26T10:55:51.861Z,3.43
2019-01-26T10:58:23.190Z,3.46
2019-01-26T11:00:54.613Z,3.47
2019-01-26T11:03:26.375Z,3.44
2019-01-26T11:05:58.875Z,3.43
2019-01-26T11:08:29.594Z,3.39
2019-01-26T11:11:00.407Z,3.25
2019-01-26T11:13:31.981Z,3.13
2019-01-26T11:16:02.974Z,3.08
2019-01-26T11:18:33.684Z,3.04
2019-01-26T11:21:04.629Z,3.04
2019-01-26T11:23:35.599Z,2.99
2019-01-26T11:26:07.029Z,2.99
2019-01-26T11:28:37.356Z,2.95
2019-01-26T11:31:07.914Z,3.03
2019-01-26T11:33:38.298Z,3.20
2019-01-26T11:36:08.661Z,3.12
2019-01-26T11:38:39.121Z,3.12
2019-01-26T11:41:09.423Z,3.19
2019-01-26T11:43:39.983Z,3.20
2019-01-26T11:46:17.735Z,3.23
2019-01-26T11:48:51.902Z,3.28
2019-01-26T11:51:37.288Z,3.23
2019-01-26T11:54:08.273Z,3.23
2019-01-26T11:56:58.024Z,3.26
2019-01-26T11:59:30.085Z,3.20
2019-01-26T12:02:08.756Z,3.13
2019-01-26T12:04:50.673Z,3.03
2019-01-26T12:07:24.609Z,3.02
2019-01-26T12:09:56.882Z,3.08
2019-01-26T12:12:28.331Z,3.14
2019-01-26T12:15:00.193Z,3.13
2019-01-26T12:17:31.601Z,3.21
2019-01-26T12:20:04.940Z,3.26
2019-01-26T12:22:36.158Z,3.29
2019-01-26T12:25:07.669Z,3.19
2019-01-26T12:27:39.718Z,3.21
2019-01-26T12:30:13.793Z,3.21
2019-01-26T12:32:46.717Z,3.27
2019-01-26T12:35:21.081Z,3.33
2019-01-26T12:37:54.058Z,3.30
2019-01-26T12:40:26.999Z,3.42
2019-01-26T12:43:00.410Z,3.56
2019-01-26T12:45:33.384Z,3.66
2019-01-26T12:48:05.420Z,3.57
2019-01-26T12:50:38.091Z,3.57
2019-01-26T12:53:10.009Z,3.66
2019-01-26T12:55:43.178Z,3.78
2019-01-26T12:58:15.203Z,3.95
2019-01-26T13:00:46.998Z,4.10
2019-01-26T13:03:19.441Z,4.23
2019-01-26T13:05:50.504Z,4.25
2019-01-26T13:08:23.140Z,4.17
2019-01-26T13:10:58.334Z,4.20
2019-01-26T13:13:31.599Z,4.19
2019-01-26T13:16:03.590Z,4.12
2019-01-26T13:18:35.809Z,4.12
2019-01-26T13:21:07.682Z,4.17
2019-01-26T13:23:39.096Z,4.14
2019-01-26T13:26:10.276Z,4.09
2019-01-26T13:28:40.972Z,4.17
2019-01-26T13:31:13.409Z,4.17
2019-01-26T13:33:44.834Z,4.27
2019-01-26T13:36:16.943Z,4.40
2019-01-26T13:38:49.400Z,4.47
2019-01-26T13:41:21.134Z,4.49
2019-01-26T13:43:52.813Z,4.51
2019-01-26T13:46:24.546Z,4.79
2019-01-26T13:48:57.269Z,5.02
2019-01-26T13:51:29.143Z,5.08
2019-01-26T13:53:59.661Z,5.05
2019-01-26T13:56:31.255Z,5.11
2019-01-26T13:59:01.785Z,5.13
2019-01-26T14:01:33.924Z,5.08
2019-01-26T14:04:05.540Z,4.99
2019-01-26T14:06:36.234Z,5.10
2019-01-26T14:09:08.992Z,5.14
2019-01-26T14:11:40.661Z,4.97
2019-01-26T14:14:13.160Z,4.95
2019-01-26T14:16:44.171Z,5.02
2019-01-26T14:19:16.833Z,5.93
2019-01-26T14:21:49.156Z,5.69
2019-01-26T14:24:21.214Z,5.44
2019-01-26T14:26:52.466Z,5.26
2019-01-26T14:29:24.364Z,5.07
2019-01-26T14:31:57.970Z,4.96
2019-01-26T14:34:30.458Z,4.93
2019-01-26T14:37:04.580Z,4.84
2019-01-26T14:39:37.279Z,4.83
2019-01-26T14:42:08.489Z,5.00
2019-01-26T14:44:40.452Z,5.10
2019-01-26T14:47:11.755Z,5.79
2019-01-26T14:49:43.378Z,6.09
2019-01-26T14:52:16.326Z,7.37
2019-01-26T14:54:48.154Z,8.58
2019-01-26T14:57:18.774Z,8.60
2019-01-26T14:59:50.012Z,7.87
2019-01-26T15:02:21.449Z,7.22
2019-01-26T15:04:53.002Z,6.70
2019-01-26T15:07:25.595Z,6.36
2019-01-26T15:09:58.587Z,5.95
2019-01-26T15:12:30.651Z,5.50
2019-01-26T15:15:03.932Z,5.33
2019-01-26T15:17:36.603Z,5.15
2019-01-26T15:20:10.551Z,5.02
2019-01-26T15:22:43.507Z,4.93
2019-01-26T15:25:15.470Z,4.97
2019-01-26T15:27:46.559Z,4.89
2019-01-26T15:30:39.317Z,4.94
2019-01-26T15:33:11.226Z,4.95
2019-01-26T15:35:44.748Z,4.87
2019-01-26T15:38:19.178Z,4.80
2019-01-26T15:40:53.475Z,4.71
2019-01-26T15:43:24.934Z,4.72
2019-01-26T15:45:57.347Z,4.79
2019-01-26T15:48:30.517Z,4.88
2019-01-26T15:51:03.207Z,4.89
2019-01-26T15:53:35.548Z,4.90
2019-01-26T15:56:07.798Z,4.84
2019-01-26T15:58:40.823Z,4.73
2019-01-26T16:01:13.832Z,4.61
2019-01-26T16:03:46.100Z,4.53
2019-01-26T16:06:18.894Z,4.52
2019-01-26T16:08:51.037Z,4.48
2019-01-26T16:11:24.045Z,4.41
2019-01-26T16:13:56.452Z,4.28
2019-01-26T16:16:29.131Z,4.26
2019-01-26T16:19:02.380Z,4.22
2019-01-26T16:21:35.303Z,4.18
2019-01-26T16:24:08.803Z,4.10
2019-01-26T16:26:40.425Z,4.09
2019-01-26T16:29:13.024Z,4.09
2019-01-26T16:31:46.860Z,4.05
2019-01-26T16:34:19.269Z,4.02
2019-01-26T16:36:51.934Z,3.95
2019-01-26T16:39:24.497Z,3.85
2019-01-26T16:41:57.208Z,3.84
2019-01-26T16:44:30.224Z,3.86
2019-01-26T16:47:03.354Z,4.06
2019-01-26T16:49:36.744Z,3.95
2019-01-26T16:52:14.035Z,3.97
2019-01-26T16:54:44.272Z,3.98
2019-01-26T16:57:17.306Z,4.01
2019-01-26T16:59:50.908Z,4.00
2019-01-26T17:02:23.433Z,3.99
2019-01-26T17:04:56.675Z,3.91
2019-01-26T17:07:29.305Z,3.90
2019-01-26T17:10:02.435Z,3.91
2019-01-26T17:12:35.038Z,3.96
2019-01-26T17:15:08.480Z,3.92
2019-01-26T17:17:41.739Z,3.84
2019-01-26T17:20:20.531Z,3.70
2019-01-26T17:22:53.923Z,3.63
2019-01-26T17:25:28.097Z,3.57
2019-01-26T17:28:01.239Z,3.52
2019-01-26T17:30:36.411Z,3.48
2019-01-26T17:33:08.726Z,3.43
2019-01-26T17:35:42.015Z,3.33
2019-01-26T17:38:14.559Z,3.31
2019-01-26T17:40:46.444Z,3.33
2019-01-26T17:43:18.447Z,3.40
2019-01-26T17:45:51.016Z,3.34
2019-01-26T17:48:24.151Z,3.37
2019-01-26T17:50:57.342Z,3.38
2019-01-26T17:53:31.659Z,3.62
2019-01-26T17:56:05.175Z,3.77
2019-01-26T17:58:38.216Z,3.74
2019-01-26T18:01:15.266Z,3.66
2019-01-26T18:03:48.441Z,3.65
2019-01-26T18:06:22.282Z,3.46
2019-01-26T18:08:55.439Z,3.30
2019-01-26T18:11:28.356Z,3.44
2019-01-26T18:14:20.439Z,3.53
2019-01-26T18:16:53.519Z,3.36
2019-01-26T18:19:26.881Z,3.31
2019-01-26T18:21:59.678Z,3.25
2019-01-26T18:24:33.138Z,3.13
2019-01-26T18:27:06.464Z,2.98
2019-01-26T18:29:39.724Z,2.89
2019-01-26T18:32:13.423Z,2.80
2019-01-26T18:34:47.259Z,2.73
2019-01-26T18:37:20.871Z,2.78
2019-01-26T18:39:56.227Z,2.82
2019-01-26T18:42:29.501Z,2.80
2019-01-26T18:45:04.082Z,2.82
2019-01-26T18:47:39.572Z,2.83
2019-01-26T18:50:16.894Z,2.73
2019-01-26T18:52:50.207Z,2.72
2019-01-26T18:55:23.140Z,2.85
2019-01-26T18:57:55.808Z,2.86
2019-01-26T19:00:31.264Z,2.92
2019-01-26T19:03:09.025Z,3.01
2019-01-26T19:05:43.503Z,3.20
2019-01-26T19:08:17.732Z,3.58
2019-01-26T19:10:50.754Z,3.59
2019-01-26T19:13:24.499Z,3.73
2019-01-26T19:15:58.414Z,3.81
2019-01-26T19:18:32.284Z,3.76
2019-01-26T19:21:07.023Z,3.63
2019-01-26T19:23:42.084Z,3.47
2019-01-26T19:26:16.409Z,3.41
2019-01-26T19:28:50.051Z,3.29
2019-01-26T19:31:32.366Z,3.19
2019-01-26T19:34:08.232Z,3.27
2019-01-26T19:36:43.133Z,3.15
2019-01-26T19:39:20.253Z,3.28
2019-01-26T19:41:57.400Z,3.29
2019-01-26T19:44:33.240Z,3.42
2019-01-26T19:47:09.787Z,3.36
2019-01-26T19:49:46.001Z,3.21
2019-01-26T19:52:22.000Z,3.10
2019-01-26T19:54:59.964Z,2.96
2019-01-26T19:57:37.914Z,2.89
2019-01-26T20:00:19.131Z,2.73
2019-01-26T20:02:55.283Z,2.66
2019-01-26T20:05:32.169Z,2.61
2019-01-26T20:08:08.116Z,2.58
2019-01-26T20:10:43.893Z,2.47
2019-01-26T20:13:20.481Z,2.43
2019-01-26T20:15:57.560Z,2.33
2019-01-26T20:18:36.229Z,2.23
2019-01-26T20:21:17.630Z,2.15
2019-01-26T20:23:51.131Z,2.07
2019-01-26T20:26:29.490Z,2.05
2019-01-26T20:29:07.619Z,2.03
2019-01-26T20:31:44.487Z,1.97
2019-01-26T20:34:21.623Z,1.95
2019-01-26T20:36:59.465Z,1.99
2019-01-26T20:39:35.547Z,1.99
2019-01-26T20:42:12.348Z,1.98
2019-01-26T20:44:48.465Z,2.02
2019-01-26T20:47:27.665Z,2.10
2019-01-26T20:50:03.948Z,2.18
2019-01-26T20:52:40.139Z,2.25
2019-01-26T20:55:19.235Z,2.30
2019-01-26T20:57:55.805Z,2.40
2019-01-26T21:00:33.515Z,2.44
2019-01-26T21:03:08.958Z,2.45
2019-01-26T21:05:49.008Z,2.46
2019-01-26T21:08:25.213Z,2.47
2019-01-26T21:11:00.086Z,2.41
2019-01-26T21:13:35.386Z,2.40
2019-01-26T21:16:10.161Z,2.34
2019-01-26T21:18:45.367Z,2.22
2019-01-26T21:21:20.230Z,2.20
2019-01-26T21:23:55.804Z,2.15
2019-01-26T21:26:31.430Z,2.13
2019-01-26T21:29:06.018Z,2.18
2019-01-26T21:31:40.069Z,2.48
2019-01-26T21:34:14.823Z,2.61
2019-01-26T21:36:48.396Z,2.56
2019-01-26T21:39:22.885Z,2.55
2019-01-26T21:41:56.751Z,2.49
2019-01-26T21:44:30.267Z,2.48
2019-01-26T21:47:04.554Z,2.47
2019-01-26T21:49:38.307Z,2.45
2019-01-26T21:52:12.834Z,2.43
2019-01-26T21:54:46.837Z,2.30
2019-01-26T21:57:20.136Z,2.24
2019-01-26T21:59:54.725Z,2.23
2019-01-26T22:02:27.511Z,2.09
2019-01-26T22:05:01.760Z,2.05
2019-01-26T22:07:34.612Z,2.09
2019-01-26T22:10:08.051Z,2.09
2019-01-26T22:12:40.307Z,2.14
2019-01-26T22:15:14.217Z,2.27
2019-01-26T22:17:46.467Z,2.33
2019-01-26T22:20:23.442Z,2.32
2019-01-26T22:22:55.359Z,2.35
2019-01-26T22:25:26.607Z,2.45
2019-01-26T22:27:59.198Z,2.49
2019-01-26T22:30:35.229Z,2.63
2019-01-26T22:33:07.419Z,2.64
2019-01-26T22:35:40.350Z,2.57
2019-01-26T22:38:12.603Z,2.65
2019-01-26T22:40:44.878Z,2.63
2019-01-26T22:43:17.712Z,2.66
2019-01-26T22:45:50.739Z,2.73
2019-01-26T22:48:22.695Z,2.86
2019-01-26T22:50:53.838Z,3.25
2019-01-26T22:53:25.159Z,3.47
2019-01-26T22:55:55.790Z,3.48
2019-01-26T22:58:26.678Z,3.44
2019-01-26T23:01:03.496Z,3.39
2019-01-26T23:04:18.614Z,3.46
2019-01-26T23:07:25.974Z,3.43
2019-01-26T23:10:16.973Z,3.73
2019-01-26T23:13:09.010Z,3.69
2019-01-26T23:16:12.419Z,3.74
2019-01-26T23:18:54.718Z,3.60
2019-01-26T23:21:48.496Z,3.47
2019-01-26T23:24:40.773Z,3.75
2019-01-26T23:27:31.054Z,3.58
2019-01-26T23:30:33.006Z,3.39
2019-01-26T23:33:03.628Z,3.25
2019-01-26T23:35:34.311Z,3.22
2019-01-26T23:38:04.614Z,3.10
2019-01-26T23:40:34.899Z,2.98
2019-01-26T23:43:05.185Z,3.03
2019-01-26T23:45:35.477Z,2.94
2019-01-26T23:48:05.814Z,2.90
2019-01-26T23:50:36.095Z,2.99
2019-01-26T23:53:06.355Z,3.02
2019-01-26T23:55:36.676Z,3.00
2019-01-26T23:58:07.407Z,2.94
